Time;durP1;ratioP1;P1;durP2;ratioP2;P2;SDS_P1;SDS_P2;PMS_P1;PMS_P2;Temp;Humidity;BMP_temperature;BMP_pressure;BME280_temperature;BME280_humidity;BME280_pressure;Samples;Min_cycle;Max_cycle;Signal;HPM_P1;HPM_P2
2021/03/23 00:00:14;;;;;;;3.80;1.83;;;;;;;-1.24;92.33;101376.25;4980974;28;20221;-72
2021/03/23 00:02:40;;;;;;;5.30;1.87;;;;;;;-1.18;91.52;101376.47;4984074;28;20624;-72
2021/03/23 00:05:07;;;;;;;3.33;1.77;;;;;;;-1.04;91.69;101380.38;4981950;28;20225;-72
2021/03/23 00:07:33;;;;;;;5.30;1.67;;;;;;;-0.93;91.39;101385.84;4982797;28;20213;-72
2021/03/23 00:10:00;;;;;;;3.93;2.27;;;;;;;-0.89;90.86;101379.13;4992456;28;20628;-72
2021/03/23 00:12:26;;;;;;;3.17;2.00;;;;;;;-0.79;90.74;101384.59;4977464;28;20201;-71
2021/03/23 00:14:52;;;;;;;2.93;1.90;;;;;;;-0.71;90.55;101386.53;4984148;28;20192;-72
2021/03/23 00:17:18;;;;;;;3.60;1.83;;;;;;;-0.67;90.20;101383.25;4979642;28;20549;-72
2021/03/23 00:19:44;;;;;;;4.13;2.10;;;;;;;-0.62;90.08;101391.94;4985879;28;20225;-72
2021/03/23 00:22:10;;;;;;;6.40;2.00;;;;;;;-0.57;89.66;101390.41;4977464;28;20447;-72
2021/03/23 00:24:37;;;;;;;2.80;1.80;;;;;;;-0.52;89.70;101390.56;4983716;28;20197;-72
2021/03/23 00:27:04;;;;;;;6.73;1.90;;;;;;;-0.46;89.70;101390.72;4981006;28;20199;-72
2021/03/23 00:29:30;;;;;;;6.97;2.40;;;;;;;-0.39;89.52;101390.09;4978676;28;20213;-71
2021/03/23 00:31:57;;;;;;;6.73;2.07;;;;;;;-0.34;88.84;101390.25;4985125;28;20212;-72
2021/03/23 00:34:23;;;;;;;4.93;1.87;;;;;;;-0.31;88.67;101387.78;4979910;28;20205;-72
2021/03/23 00:36:49;;;;;;;4.07;1.90;;;;;;;-0.25;89.34;101381.13;4983280;28;20738;-72
2021/03/23 00:39:15;;;;;;;5.03;1.77;;;;;;;-0.17;88.87;101383.94;4980696;28;20654;-72
2021/03/23 00:41:43;;;;;;;4.00;1.90;;;;;;;-0.12;88.41;101384.97;4985220;28;21746;-72
2021/03/23 00:44:13;;;;;;;3.63;1.60;;;;;;;-0.08;88.39;101386.78;4983050;28;20207;-72
2021/03/23 00:46:40;;;;;;;4.00;1.90;;;;;;;-0.03;88.53;101385.22;4981445;28;20579;-72
2021/03/23 00:49:06;;;;;;;2.90;1.83;;;;;;;0.01;88.03;101385.31;4982193;28;20306;-71
2021/03/23 00:51:32;;;;;;;5.37;2.30;;;;;;;0.05;88.17;101384.56;4980729;28;20253;-72
2021/03/23 00:53:58;;;;;;;3.63;2.03;;;;;;;0.11;88.14;101379.63;4980685;28;21385;-72
2021/03/23 00:56:24;;;;;;;5.77;1.90;;;;;;;0.14;87.97;101375.47;4980791;28;20226;-72
2021/03/23 00:58:51;;;;;;;2.80;1.70;;;;;;;0.21;88.29;101381.59;4987024;28;20248;-71
2021/03/23 01:01:17;;;;;;;5.10;1.93;;;;;;;0.26;87.73;101382.59;4979498;28;20233;-71
2021/03/23 01:03:43;;;;;;;4.70;1.97;;;;;;;0.31;87.79;101385.31;4981994;28;20215;-72
2021/03/23 01:06:10;;;;;;;7.37;1.93;;;;;;;0.35;87.51;101382.00;4980836;28;20213;-72
2021/03/23 01:08:36;;;;;;;7.33;2.17;;;;;;;0.39;87.70;101381.28;4983533;28;20204;-72
2021/03/23 01:11:02;;;;;;;4.63;2.07;;;;;;;0.41;87.52;101371.91;4978698;28;20591;-72
2021/03/23 01:13:31;;;;;;;3.60;1.77;;;;;;;0.47;87.62;101378.91;4979717;28;20851;-72
2021/03/23 01:15:57;;;;;;;7.23;2.17;;;;;;;0.51;87.14;101381.59;5007997;28;20189;-72
2021/03/23 01:18:24;;;;;;;4.90;2.07;;;;;;;0.54;87.19;101373.09;4978231;28;20553;-71
2021/03/23 01:20:50;;;;;;;6.07;2.27;;;;;;;0.58;87.26;101380.06;4983130;28;20212;-72
2021/03/23 01:23:16;;;;;;;4.83;2.33;;;;;;;0.62;87.37;101379.31;4977457;28;20193;-72
2021/03/23 01:25:42;;;;;;;5.47;2.57;;;;;;;0.65;87.41;101370.81;4984661;28;20682;-72
2021/03/23 01:28:09;;;;;;;3.57;2.03;;;;;;;0.70;87.64;101379.53;4975504;28;20228;-72
2021/03/23 01:30:35;;;;;;;7.70;2.47;;;;;;;0.74;87.87;101378.78;4979676;28;20225;-72
2021/03/23 01:33:01;;;;;;;4.13;2.20;;;;;;;0.77;87.98;101381.41;4967550;28;20295;-72
2021/03/23 01:35:28;;;;;;;7.13;2.47;;;;;;;0.80;88.16;101375.50;4974209;28;20664;-72
2021/03/23 01:37:55;;;;;;;3.70;2.00;;;;;;;0.81;88.63;101378.13;4978308;28;20220;-72
2021/03/23 01:40:24;;;;;;;4.70;2.37;;;;;;;0.83;88.78;101373.88;4979460;28;20292;-72
2021/03/23 01:42:52;;;;;;;3.63;2.33;;;;;;;0.87;88.86;101377.41;4980657;28;20236;-72
2021/03/23 01:45:26;;;;;;;3.73;2.23;;;;;;;0.89;88.96;101384.28;4979406;28;20201;-72
2021/03/23 01:47:54;;;;;;;3.80;2.20;;;;;;;0.94;88.96;101384.44;4981996;28;20194;-72
2021/03/23 01:50:20;;;;;;;3.60;1.93;;;;;;;0.94;89.08;101375.00;4977311;28;20628;-72
2021/03/23 01:52:52;;;;;;;5.13;2.17;;;;;;;0.98;89.07;101375.09;4976083;28;20450;-72
2021/03/23 01:55:18;;;;;;;4.67;2.40;;;;;;;1.00;89.50;101373.44;4984146;28;20283;-72
2021/03/23 01:57:48;;;;;;;5.03;2.30;;;;;;;1.05;89.63;101377.00;4976603;28;20225;-72
2021/03/23 02:00:15;;;;;;;4.13;2.20;;;;;;;1.08;89.45;101383.06;4985778;28;20264;-72
2021/03/23 02:02:41;;;;;;;8.17;2.60;;;;;;;1.10;89.55;101372.84;4976493;28;20227;-72
2021/03/23 02:05:17;;;;;;;4.63;2.70;;;;;;;1.13;89.93;101371.22;4969718;28;20673;-72
2021/03/23 02:07:43;;;;;;;2.97;2.07;;;;;;;1.15;89.95;101366.13;4978294;28;20664;-72
2021/03/23 02:10:11;;;;;;;4.73;2.30;;;;;;;1.16;90.09;101365.25;4983066;28;20216;-72
2021/03/23 02:12:37;;;;;;;4.97;2.57;;;;;;;1.19;90.21;101360.22;4980571;28;20200;-72
2021/03/23 02:15:06;;;;;;;4.27;2.50;;;;;;;1.21;90.64;101366.25;4983343;28;20681;-72
2021/03/23 02:17:34;;;;;;;5.47;2.53;;;;;;;1.24;90.83;101368.03;4983626;28;20225;-72
2021/03/23 02:20:07;;;;;;;5.90;2.70;;;;;;;1.27;91.27;101368.13;4983244;28;20227;-72
2021/03/23 02:22:36;;;;;;;4.17;2.17;;;;;;;1.28;91.25;101369.84;4986274;28;20584;-72
2021/03/23 02:25:04;;;;;;;9.07;3.13;;;;;;;1.29;91.13;101362.16;4981117;28;20205;-72
2021/03/23 02:27:30;;;;;;;3.33;2.27;;;;;;;1.31;91.26;101372.47;4986588;28;20827;-72
2021/03/23 02:29:59;;;;;;;4.80;2.30;;;;;;;1.32;91.47;101364.81;4984818;28;20704;-72
2021/03/23 02:32:25;;;;;;;3.97;2.50;;;;;;;1.35;91.52;101370.84;4984702;28;20205;-72
2021/03/23 02:34:51;;;;;;;4.40;2.40;;;;;;;1.39;91.70;101370.09;4983601;28;20201;-72
2021/03/23 02:37:18;;;;;;;3.57;2.30;;;;;;;1.39;91.64;101376.13;4985417;28;20625;-72
2021/03/23 02:39:45;;;;;;;7.07;2.47;;;;;;;1.42;92.00;101372.72;4983270;28;20225;-72
2021/03/23 02:42:12;;;;;;;4.40;2.27;;;;;;;1.43;92.55;101375.34;4981731;28;20201;-72
2021/03/23 02:44:41;;;;;;;7.17;2.40;;;;;;;1.48;92.85;101371.19;5002539;28;20211;-72
2021/03/23 02:47:08;;;;;;;6.87;2.60;;;;;;;1.52;93.07;101379.84;4983602;28;20215;-72
2021/03/23 02:49:34;;;;;;;5.43;2.50;;;;;;;1.57;93.19;101378.25;4986831;28;20233;-72
2021/03/23 02:52:01;;;;;;;7.90;2.40;;;;;;;1.60;93.18;101380.88;4980715;28;20217;-71
2021/03/23 02:54:27;;;;;;;6.47;2.57;;;;;;;1.67;93.64;101381.88;4983701;28;20209;-72
2021/03/23 02:56:54;;;;;;;4.73;2.53;;;;;;;1.77;94.04;101380.38;4984946;28;20204;-72
2021/03/23 02:59:20;;;;;;;8.57;2.63;;;;;;;1.85;93.73;101384.84;4982122;28;20230;-72
2021/03/23 03:01:46;;;;;;;6.40;2.30;;;;;;;1.89;93.93;101390.94;4979244;28;20641;-72
2021/03/23 03:04:12;;;;;;;8.87;2.50;;;;;;;1.91;93.92;101381.53;4981558;28;20212;-72
2021/03/23 03:06:38;;;;;;;6.30;2.43;;;;;;;1.97;93.67;101384.25;4983568;28;20208;-72
2021/03/23 03:09:05;;;;;;;3.63;2.30;;;;;;;2.01;93.74;101383.47;4982117;28;20249;-72
2021/03/23 03:11:31;;;;;;;4.67;2.63;;;;;;;2.03;94.12;101379.22;4986097;28;20209;-72
2021/03/23 03:13:58;;;;;;;5.37;2.47;;;;;;;2.03;93.70;101391.25;4981581;28;20368;-72
2021/03/23 03:16:24;;;;;;;6.70;2.87;;;;;;;2.05;93.89;101384.41;4986896;28;20666;-72
2021/03/23 03:18:50;;;;;;;4.80;2.30;;;;;;;2.11;94.02;101381.97;4980510;28;20624;-72
2021/03/23 03:21:16;;;;;;;6.73;2.50;;;;;;;2.11;94.16;101386.25;4982082;28;20287;-72
2021/03/23 03:23:42;;;;;;;4.93;2.00;;;;;;;2.12;94.20;101383.69;4986012;28;20204;-72
2021/03/23 03:26:09;;;;;;;3.93;2.13;;;;;;;2.17;94.54;101378.66;4982053;28;20669;-72
2021/03/23 03:28:36;;;;;;;8.07;3.30;;;;;;;2.19;94.67;101387.28;4983499;28;20605;-72
2021/03/23 03:31:03;;;;;;;7.73;2.67;;;;;;;2.23;94.48;101387.38;4979505;28;20256;-72
2021/03/23 03:33:29;;;;;;;5.33;2.17;;;;;;;2.28;94.42;101384.88;4984644;28;20209;-72
2021/03/23 03:35:56;;;;;;;5.53;2.67;;;;;;;2.30;94.70;101387.50;4978814;28;20206;-72
2021/03/23 03:38:24;;;;;;;3.97;2.40;;;;;;;2.32;94.79;101394.38;4985717;28;20510;-72
2021/03/23 03:40:54;;;;;;;6.57;2.50;;;;;;;2.29;94.84;101391.78;4985187;28;20217;-72
2021/03/23 03:43:23;;;;;;;4.33;2.10;;;;;;;2.31;95.15;101399.53;4982800;28;20232;-72
2021/03/23 03:45:49;;;;;;;7.73;2.50;;;;;;;2.30;95.32;101406.34;4979858;28;20685;-72
2021/03/23 03:48:17;;;;;;;4.03;2.57;;;;;;;2.31;95.22;101400.38;4982014;28;20231;-72
2021/03/23 03:50:43;;;;;;;5.37;2.27;;;;;;;2.33;95.40;101403.00;5001460;28;20229;-72
2021/03/23 03:53:10;;;;;;;3.90;2.23;;;;;;;2.35;95.33;101402.19;4981465;28;20295;-72
2021/03/23 03:55:39;;;;;;;4.27;2.07;;;;;;;2.36;95.28;101403.94;4986713;28;20206;-72
2021/03/23 03:58:05;;;;;;;6.03;2.73;;;;;;;2.37;95.36;101402.22;4976778;28;20809;-72
2021/03/23 04:00:33;;;;;;;4.90;2.47;;;;;;;2.38;95.53;101404.81;4986650;28;20248;-72
2021/03/23 04:03:00;;;;;;;5.77;2.57;;;;;;;2.38;95.10;101403.97;4977665;28;20228;-72
2021/03/23 04:05:30;;;;;;;4.53;2.30;;;;;;;2.37;95.28;101403.06;4981701;28;20198;-72
2021/03/23 04:07:56;;;;;;;5.77;2.27;;;;;;;2.34;95.46;101399.56;4977599;28;20727;-72
2021/03/23 04:10:23;;;;;;;4.07;2.20;;;;;;;2.33;95.85;101405.56;4979242;28;20260;-72
2021/03/23 04:12:51;;;;;;;5.27;2.50;;;;;;;2.34;96.27;101405.59;4985958;28;20188;-72
2021/03/23 04:15:21;;;;;;;4.50;2.50;;;;;;;2.34;96.52;101400.47;4981497;28;20206;-72
2021/03/23 04:17:47;;;;;;;5.60;2.80;;;;;;;2.38;96.73;101404.81;4988312;28;20296;-72
2021/03/23 04:20:14;;;;;;;4.97;2.43;;;;;;;2.39;97.00;101404.00;4983612;28;20640;-72
2021/03/23 04:22:41;;;;;;;4.23;2.10;;;;;;;2.40;96.65;101407.44;4982071;28;20209;-72
2021/03/23 04:25:09;;;;;;;6.00;2.33;;;;;;;2.39;96.56;101409.16;4984480;28;20858;-72
2021/03/23 04:27:36;;;;;;;6.30;3.03;;;;;;;2.42;97.30;101410.91;4979104;28;20357;-72
2021/03/23 04:30:03;;;;;;;3.17;2.30;;;;;;;2.45;97.58;101418.69;4983817;28;20224;-72
2021/03/23 04:32:29;;;;;;;7.67;2.90;;;;;;;2.46;98.31;101413.56;4979861;28;20296;-72
2021/03/23 04:34:55;;;;;;;7.13;2.77;;;;;;;2.47;100.00;101412.72;4985217;28;20205;-72
2021/03/23 04:37:21;;;;;;;5.03;2.70;;;;;;;2.46;100.00;101415.25;4977505;28;20209;-72
2021/03/23 04:39:48;;;;;;;6.00;3.50;;;;;;;2.44;100.00;101407.50;4984528;28;20637;-72
2021/03/23 04:42:14;;;;;;;5.57;3.10;;;;;;;2.45;100.00;101414.41;4981566;28;20285;-72
2021/03/23 04:44:40;;;;;;;7.30;2.97;;;;;;;2.43;100.00;101410.94;4978340;28;20712;-72
2021/03/23 04:47:07;;;;;;;5.50;2.83;;;;;;;2.42;100.00;101418.63;4977843;28;20522;-72
2021/03/23 04:49:33;;;;;;;6.13;3.10;;;;;;;2.41;100.00;101416.88;4984068;28;21009;-72
2021/03/23 04:51:59;;;;;;;5.83;3.50;;;;;;;2.39;100.00;101419.44;4980753;28;20232;-72
2021/03/23 04:54:25;;;;;;;5.57;3.93;;;;;;;2.42;100.00;101421.19;4978692;28;20205;-72
2021/03/23 04:56:53;;;;;;;5.00;3.23;;;;;;;2.41;100.00;101420.34;4983991;28;20193;-72
2021/03/23 04:59:19;;;;;;;7.70;3.57;;;;;;;2.40;100.00;101418.59;4980840;28;20272;-72
2021/03/23 05:01:45;;;;;;;7.63;3.90;;;;;;;2.43;100.00;101423.81;4978463;28;20201;-72
2021/03/23 05:04:14;;;;;;;5.10;3.53;;;;;;;2.47;100.00;101427.31;4977224;28;20205;-72
2021/03/23 05:06:41;;;;;;;4.87;3.23;;;;;;;2.47;100.00;101422.16;4980732;28;20201;-72
2021/03/23 05:09:07;;;;;;;9.20;3.50;;;;;;;2.50;100.00;101423.91;4984290;28;20213;-72
2021/03/23 05:11:34;;;;;;;6.60;3.47;;;;;;;2.51;100.00;101426.50;4980377;28;20467;-72
2021/03/23 05:14:04;;;;;;;5.27;3.37;;;;;;;2.54;100.00;101433.44;4979292;28;20238;-72
2021/03/23 05:16:30;;;;;;;6.83;3.73;;;;;;;2.55;100.00;101430.00;4978650;28;20295;-72
2021/03/23 05:18:56;;;;;;;8.20;3.53;;;;;;;2.55;100.00;101435.16;4981827;28;20263;-72
2021/03/23 05:21:23;;;;;;;9.33;4.23;;;;;;;2.55;100.00;101430.91;4978826;28;20277;-72
2021/03/23 05:23:52;;;;;;;8.33;4.13;;;;;;;2.59;100.00;101443.00;4982718;28;20292;-72
2021/03/23 05:26:18;;;;;;;8.57;4.00;;;;;;;2.61;100.00;101441.31;4974871;28;20543;-72
2021/03/23 05:28:47;;;;;;;6.67;3.33;;;;;;;2.63;100.00;101437.06;4981240;28;20245;-72
2021/03/23 05:31:15;;;;;;;6.87;3.97;;;;;;;2.67;100.00;101431.97;4978370;28;20511;-72
2021/03/23 05:33:41;;;;;;;7.60;3.97;;;;;;;2.68;100.00;101437.16;4979136;28;20272;-72
2021/03/23 05:36:09;;;;;;;10.03;3.53;;;;;;;2.72;100.00;101443.22;4986735;28;20547;-72
2021/03/23 05:38:35;;;;;;;5.37;3.60;;;;;;;2.73;100.00;101435.53;4978430;28;20209;-72
2021/03/23 05:41:04;;;;;;;5.63;3.50;;;;;;;2.76;100.00;101448.47;4984180;28;21070;-72
2021/03/23 05:43:43;;;;;;;5.73;3.47;;;;;;;2.78;100.00;101449.38;4997175;28;20237;-72
2021/03/23 05:46:23;;;;;;;7.10;4.03;;;;;;;2.82;100.00;101450.28;4989562;28;20656;-72
2021/03/23 05:48:59;;;;;;;5.60;3.70;;;;;;;2.84;100.00;101449.47;4980530;28;20230;-72
2021/03/23 05:51:30;;;;;;;8.23;3.93;;;;;;;2.87;100.00;101455.50;4988774;28;20280;-72
2021/03/23 05:54:00;;;;;;;4.60;2.90;;;;;;;2.87;100.00;101447.78;4975614;28;20205;-72
2021/03/23 05:56:28;;;;;;;6.17;3.43;;;;;;;2.89;100.00;101453.88;4982505;28;20219;-72
2021/03/23 05:59:03;;;;;;;5.50;3.33;;;;;;;2.91;100.00;101447.88;4978696;28;20232;-72
2021/03/23 06:01:38;;;;;;;7.00;3.77;;;;;;;2.93;100.00;101451.34;4981184;28;20188;-72
2021/03/23 06:04:12;;;;;;;7.53;3.33;;;;;;;2.93;100.00;101459.06;4980030;28;20205;-72
2021/03/23 06:06:42;;;;;;;6.30;3.60;;;;;;;2.96;100.00;101455.72;4983592;28;20188;-72
2021/03/23 06:09:12;;;;;;;5.40;3.23;;;;;;;2.99;100.00;101458.31;4978596;28;20371;-72
2021/03/23 06:11:51;;;;;;;5.80;3.23;;;;;;;3.01;100.00;101465.25;4979834;28;20576;-72
2021/03/23 06:14:26;;;;;;;5.47;3.57;;;;;;;3.04;100.00;101467.00;4975741;28;20197;-72
2021/03/23 06:17:02;;;;;;;4.47;3.00;;;;;;;3.05;100.00;101473.03;4979480;28;20243;-72
2021/03/23 06:19:39;;;;;;;6.87;3.40;;;;;;;3.07;100.00;101473.94;4980743;28;20217;-72
2021/03/23 06:22:19;;;;;;;4.57;2.70;;;;;;;3.09;100.00;101464.53;4976684;28;20792;-72
2021/03/23 06:24:55;;;;;;;6.57;3.03;;;;;;;3.12;100.00;101470.59;4984833;28;20285;-72
2021/03/23 06:27:28;;;;;;;4.20;3.07;;;;;;;3.18;100.00;101473.31;4978885;28;20279;-72
2021/03/23 06:30:28;;;;;;;5.67;3.10;;;;;;;3.22;100.00;101477.66;4981696;28;20214;-72
2021/03/23 06:32:56;;;;;;;7.50;3.47;;;;;;;3.27;100.00;101476.84;4978489;28;20248;-72
2021/03/23 06:35:27;;;;;;;4.33;3.30;;;;;;;3.29;100.00;101478.63;4983307;28;20549;-72
2021/03/23 06:37:53;;;;;;;5.90;3.00;;;;;;;3.32;100.00;101482.97;4973669;28;20206;-72
2021/03/23 06:40:23;;;;;;;4.33;2.60;;;;;;;3.36;100.00;101485.63;4980967;28;20225;-72
2021/03/23 06:42:52;;;;;;;4.27;2.47;;;;;;;3.40;100.00;101486.56;4973517;28;20205;-72
2021/03/23 06:45:31;;;;;;;3.27;2.37;;;;;;;3.41;100.00;101491.75;4978119;28;20220;-72
2021/03/23 06:48:19;;;;;;;3.93;3.00;;;;;;;3.39;99.96;101487.38;4977073;28;20232;-72
2021/03/23 06:50:47;;;;;;;5.67;2.97;;;;;;;3.41;99.78;101496.00;4979289;28;20233;-72
2021/03/23 06:53:15;;;;;;;3.77;2.80;;;;;;;3.44;99.88;101495.22;4993541;28;20712;-72
2021/03/23 06:55:45;;;;;;;4.37;2.70;;;;;;;3.45;99.35;101494.34;4983143;28;20763;-72
2021/03/23 06:58:23;;;;;;;5.07;2.27;;;;;;;3.49;98.93;101497.00;4991310;28;20217;-72
2021/03/23 07:01:13;;;;;;;3.57;2.40;;;;;;;3.51;98.72;101500.47;4977521;28;20232;-72
2021/03/23 07:03:42;;;;;;;4.80;2.17;;;;;;;3.55;99.01;101498.81;4982416;28;20188;-72
2021/03/23 07:06:18;;;;;;;4.53;2.80;;;;;;;3.57;98.61;101504.88;4975395;28;20209;-72
2021/03/23 07:08:44;;;;;;;3.20;2.40;;;;;;;3.58;97.94;101507.47;4980136;28;20225;-72
2021/03/23 07:11:10;;;;;;;5.77;2.33;;;;;;;3.62;98.29;101505.81;4976814;28;20296;-72
2021/03/23 07:13:40;;;;;;;3.27;2.10;;;;;;;3.63;97.83;101502.41;4984737;28;20243;-72
2021/03/23 07:16:25;;;;;;;4.27;2.70;;;;;;;3.63;97.28;101507.56;4977914;28;20570;-72
2021/03/23 07:18:54;;;;;;;4.10;2.40;;;;;;;3.67;96.95;101508.47;4981649;28;20232;-72
2021/03/23 07:21:40;;;;;;;2.87;2.40;;;;;;;3.66;96.74;101512.78;4982972;28;20308;-72
2021/03/23 07:24:09;;;;;;;4.50;2.73;;;;;;;3.67;96.27;101517.06;4980675;28;20256;-72
2021/03/23 07:26:36;;;;;;;3.80;2.70;;;;;;;3.70;95.53;101521.44;4978936;28;20720;-72
2021/03/23 07:29:25;;;;;;;3.63;2.80;;;;;;;3.75;96.00;101524.97;4980722;28;20288;-72
2021/03/23 07:32:11;;;;;;;3.77;2.60;;;;;;;3.81;95.70;101526.75;4979100;28;20194;-72
2021/03/23 07:34:53;;;;;;;3.57;2.40;;;;;;;3.84;95.58;101524.25;4979468;28;20205;-72
2021/03/23 07:37:23;;;;;;;3.73;2.30;;;;;;;3.88;95.49;101526.03;4988565;28;20211;-72
2021/03/23 07:39:54;;;;;;;5.53;3.03;;;;;;;3.93;95.73;101522.66;4982855;28;20323;-72
2021/03/23 07:42:26;;;;;;;5.70;3.23;;;;;;;3.98;95.51;101525.31;4983474;28;20220;-72
2021/03/23 07:44:56;;;;;;;4.53;3.00;;;;;;;4.00;94.79;101536.53;4978809;28;20285;-72
2021/03/23 07:47:31;;;;;;;4.23;2.57;;;;;;;4.10;95.01;101527.22;4983446;28;20205;-72
2021/03/23 07:50:05;;;;;;;8.60;5.57;;;;;;;4.11;94.13;101540.13;4981922;28;20236;-72
2021/03/23 07:52:40;;;;;;;4.83;3.20;;;;;;;4.14;93.42;101537.59;4983593;28;20200;-72
2021/03/23 07:55:15;;;;;;;5.47;3.07;;;;;;;4.20;94.21;101536.81;4980336;28;20688;-72
2021/03/23 07:58:00;;;;;;;7.23;3.93;;;;;;;4.21;93.62;101538.56;4983047;28;20205;-72
2021/03/23 08:00:46;;;;;;;3.30;2.60;;;;;;;4.14;93.15;101542.75;4976785;28;20259;-72
2021/03/23 08:03:42;;;;;;;4.37;2.47;;;;;;;4.16;92.92;101548.81;4984005;28;20201;-72
2021/03/23 08:06:18;;;;;;;3.63;2.60;;;;;;;4.18;93.31;101547.13;4974536;28;20680;-72
2021/03/23 08:09:03;;;;;;;3.40;2.13;;;;;;;4.15;92.95;101548.78;4984582;28;20216;-72
2021/03/23 08:11:41;;;;;;;6.10;2.43;;;;;;;4.14;92.42;101549.66;4981137;28;20201;-72
2021/03/23 08:14:24;;;;;;;5.07;2.50;;;;;;;4.17;92.84;101552.28;4981330;28;20276;-72
2021/03/23 08:17:09;;;;;;;3.43;2.57;;;;;;;4.20;92.28;101554.88;4985420;28;20224;-72
2021/03/23 08:19:54;;;;;;;5.93;2.40;;;;;;;4.24;92.44;101554.09;4980931;28;20225;-72
2021/03/23 08:22:44;;;;;;;15.27;7.90;;;;;;;4.29;91.37;101560.22;4978482;28;20667;-72
2021/03/23 08:25:18;;;;;;;26.57;11.20;;;;;;;4.29;91.03;101552.47;4984847;28;20221;-72
2021/03/23 08:27:55;;;;;;;25.73;13.60;;;;;;;4.47;91.90;101553.56;4982816;28;20201;-72
2021/03/23 08:30:34;;;;;;;23.27;10.10;;;;;;;4.62;92.20;101556.34;4984708;28;20225;-72
2021/03/23 08:33:06;;;;;;;9.67;6.33;;;;;;;4.67;91.46;101559.00;4984511;28;20204;-72
2021/03/23 08:35:57;;;;;;;13.63;6.80;;;;;;;4.69;90.71;101554.72;4979831;28;20201;-72
2021/03/23 08:38:40;;;;;;;6.07;3.33;;;;;;;4.66;89.79;101563.31;4982435;28;20218;-72
2021/03/23 08:41:15;;;;;;;6.33;3.40;;;;;;;4.63;89.51;101563.25;4982002;28;20247;-72
2021/03/23 08:43:44;;;;;;;4.70;3.17;;;;;;;4.63;89.63;101563.25;4977214;28;20906;-72
2021/03/23 08:46:17;;;;;;;3.23;2.47;;;;;;;4.68;90.34;101568.50;4979856;28;20240;-72
2021/03/23 08:48:48;;;;;;;4.30;2.90;;;;;;;4.69;89.30;101576.25;4983452;28;20206;-72
2021/03/23 08:51:19;;;;;;;3.93;2.60;;;;;;;4.72;89.60;101575.44;4978810;28;20573;-72
2021/03/23 08:53:50;;;;;;;3.23;2.30;;;;;;;4.63;88.90;101581.34;4979976;28;20198;-72
2021/03/23 08:56:57;;;;;;;4.93;2.60;;;;;;;4.63;88.63;101583.06;4980885;28;20236;-72
2021/03/23 08:59:52;;;;;;;6.83;4.07;;;;;;;4.62;88.69;101587.34;4977735;28;20693;-72
2021/03/23 09:02:38;;;;;;;5.70;2.37;;;;;;;4.67;89.35;101584.81;4975578;28;20384;-72
2021/03/23 09:05:26;;;;;;;3.90;3.10;;;;;;;4.69;88.84;101589.16;4983121;28;20703;-72
2021/03/23 09:08:27;;;;;;;5.27;4.10;;;;;;;4.74;88.65;101592.66;4978883;28;20418;-72
2021/03/23 09:10:58;;;;;;;3.97;2.87;;;;;;;4.74;87.98;101595.25;4968350;28;20201;-72
2021/03/23 09:14:03;;;;;;;4.23;3.10;;;;;;;4.86;88.43;101591.13;4976829;28;20224;-72
2021/03/23 09:16:55;;;;;;;5.33;3.30;;;;;;;4.97;88.37;101592.09;4978739;28;20197;-72
2021/03/23 09:19:37;;;;;;;5.03;3.30;;;;;;;5.03;87.75;101596.47;4978914;28;20220;-72
2021/03/23 09:22:36;;;;;;;3.50;2.97;;;;;;;5.04;86.88;101599.09;4980421;28;20232;-72
2021/03/23 09:25:22;;;;;;;4.17;2.63;;;;;;;5.08;86.97;101607.75;4977852;28;20300;-72
2021/03/23 09:27:57;;;;;;;5.50;3.03;;;;;;;5.08;86.63;101606.03;4973623;28;20208;-72
2021/03/23 09:30:51;;;;;;;5.63;3.70;;;;;;;5.18;86.33;101613.91;4976550;28;20317;-72
2021/03/23 09:33:39;;;;;;;7.73;3.37;;;;;;;5.20;85.51;101607.03;4973040;28;20296;-72
2021/03/23 09:36:36;;;;;;;5.93;3.77;;;;;;;5.16;85.76;101611.28;4975406;28;20224;-72
2021/03/23 09:39:42;;;;;;;6.53;3.77;;;;;;;5.19;84.89;101610.44;4971571;28;21341;-72
2021/03/23 09:42:31;;;;;;;4.63;3.30;;;;;;;5.15;85.17;101619.03;4981075;28;20264;-72
2021/03/23 09:45:28;;;;;;;3.33;2.50;;;;;;;5.21;84.84;101614.81;4976582;28;20288;-72
2021/03/23 09:48:02;;;;;;;3.60;2.60;;;;;;;5.27;84.46;101614.00;4976421;28;20193;-72
2021/03/23 09:50:34;;;;;;;5.57;3.20;;;;;;;5.30;84.14;101616.63;4991328;28;20946;-72
2021/03/23 09:53:08;;;;;;;6.37;4.47;;;;;;;5.28;84.06;101623.50;4976629;28;20194;-72
2021/03/23 09:55:36;;;;;;;3.10;2.50;;;;;;;5.26;84.21;101622.63;4974806;28;20205;-72
2021/03/23 09:58:03;;;;;;;2.97;2.33;;;;;;;5.29;83.64;101615.78;4975527;28;20213;-72
2021/03/23 10:00:33;;;;;;;11.97;6.97;;;;;;;5.31;83.65;101614.06;4978495;28;20764;-72
2021/03/23 10:03:00;;;;;;;3.10;2.63;;;;;;;5.29;82.68;101628.69;4976691;28;20316;-72
2021/03/23 10:05:31;;;;;;;4.10;2.83;;;;;;;5.29;83.59;101627.81;4977791;28;20208;-72
2021/03/23 10:08:12;;;;;;;4.17;3.40;;;;;;;5.29;84.12;101615.78;4979616;28;20232;-72
2021/03/23 10:10:38;;;;;;;3.30;2.73;;;;;;;5.29;83.90;101622.63;4977825;28;20307;-72
2021/03/23 10:13:18;;;;;;;3.43;2.20;;;;;;;5.24;83.12;101632.94;4977810;28;20201;-72
2021/03/23 10:15:45;;;;;;;2.90;2.40;;;;;;;5.19;83.35;101625.97;4984564;28;20201;-72
2021/03/23 10:18:18;;;;;;;4.87;2.30;;;;;;;5.15;82.94;101637.97;4976389;28;20217;-72
2021/03/23 10:20:44;;;;;;;4.37;2.30;;;;;;;5.17;83.06;101635.44;4981244;28;20213;-72
2021/03/23 10:23:11;;;;;;;3.57;2.43;;;;;;;5.28;83.63;101621.78;4972926;28;20729;-72
2021/03/23 10:25:37;;;;;;;4.80;2.70;;;;;;;5.39;82.48;101628.81;4973977;28;20197;-72
2021/03/23 10:28:05;;;;;;;2.43;2.23;;;;;;;5.50;81.93;101637.53;4985555;28;20627;-72
2021/03/23 10:30:33;;;;;;;4.17;3.13;;;;;;;5.60;82.92;101623.00;4980632;28;20305;-72
2021/03/23 10:33:19;;;;;;;7.30;3.73;;;;;;;5.76;82.09;101630.03;4985375;28;20201;-72
2021/03/23 10:35:54;;;;;;;7.80;4.43;;;;;;;5.79;81.35;101630.09;4983432;28;20483;-72
2021/03/23 10:38:22;;;;;;;4.17;3.23;;;;;;;5.90;81.57;101635.34;4985267;28;20213;-72
2021/03/23 10:40:50;;;;;;;2.10;1.90;;;;;;;5.95;81.71;101627.66;4976640;28;20772;-72
2021/03/23 10:43:29;;;;;;;6.60;3.97;;;;;;;6.03;81.40;101631.19;4981988;28;20259;-72
2021/03/23 10:45:58;;;;;;;2.37;1.93;;;;;;;5.94;80.76;101633.66;4982969;28;20569;-72
2021/03/23 10:48:28;;;;;;;3.27;2.43;;;;;;;5.90;81.06;101637.09;4985729;28;20209;-72
2021/03/23 10:51:11;;;;;;;3.67;2.17;;;;;;;5.88;81.03;101637.94;4981385;28;20198;-72
2021/03/23 10:53:38;;;;;;;4.63;2.10;;;;;;;5.90;81.08;101640.53;4978688;28;20259;-72
2021/03/23 10:56:20;;;;;;;2.90;2.27;;;;;;;5.94;81.09;101641.44;4981376;28;20205;-72
2021/03/23 10:59:04;;;;;;;3.80;2.13;;;;;;;5.93;80.92;101637.09;4981988;28;20280;-72
2021/03/23 11:01:30;;;;;;;3.00;2.20;;;;;;;5.87;80.81;101631.03;4972402;28;20293;-72
2021/03/23 11:04:10;;;;;;;3.03;2.60;;;;;;;5.84;81.42;101635.28;4982980;28;20213;-72
2021/03/23 11:06:38;;;;;;;2.97;2.27;;;;;;;5.71;79.79;101638.63;4982115;28;20276;-72
2021/03/23 11:09:08;;;;;;;3.60;2.60;;;;;;;5.62;79.61;101642.84;4977853;28;20264;-72
2021/03/23 11:11:34;;;;;;;3.70;2.67;;;;;;;5.59;81.67;101635.03;4981939;28;20209;-72
2021/03/23 11:14:00;;;;;;;3.33;2.50;;;;;;;5.39;82.63;101640.00;4976429;28;20205;-72
2021/03/23 11:16:31;;;;;;;2.27;1.80;;;;;;;5.09;84.82;101632.75;4983303;28;20604;-72
2021/03/23 11:19:01;;;;;;;2.90;2.20;;;;;;;5.04;87.35;101629.25;4978965;28;20226;-72
2021/03/23 11:21:31;;;;;;;2.57;2.20;;;;;;;5.09;88.98;101632.75;4983997;28;20307;-72
2021/03/23 11:23:57;;;;;;;4.20;2.67;;;;;;;5.06;89.08;101630.97;4982456;28;21611;-72
2021/03/23 11:26:26;;;;;;;2.80;2.10;;;;;;;5.16;90.80;101624.22;4977857;28;20193;-72
2021/03/23 11:28:54;;;;;;;3.77;2.90;;;;;;;5.20;89.60;101627.72;4979867;28;20252;-72
2021/03/23 11:31:21;;;;;;;3.77;2.63;;;;;;;5.34;90.31;101620.97;4980809;28;20202;-72
2021/03/23 11:33:48;;;;;;;3.67;2.37;;;;;;;5.30;89.74;101621.81;4983450;28;20285;-72
2021/03/23 11:36:15;;;;;;;4.47;2.43;;;;;;;5.37;89.55;101622.75;4980765;28;20268;-72
2021/03/23 11:38:41;;;;;;;4.87;2.40;;;;;;;5.39;88.27;101621.91;4975710;28;20212;-72
2021/03/23 11:41:15;;;;;;;3.53;2.30;;;;;;;5.56;89.03;101626.38;4981664;28;20197;-72
2021/03/23 11:43:44;;;;;;;3.20;2.13;;;;;;;5.73;88.54;101624.84;4982821;28;20205;-72
2021/03/23 11:46:21;;;;;;;4.53;2.60;;;;;;;5.83;87.09;101624.06;4979161;28;20561;-72
2021/03/23 11:48:51;;;;;;;3.00;2.13;;;;;;;5.85;86.59;101617.19;4995350;28;20719;-72
2021/03/23 11:51:21;;;;;;;3.53;2.60;;;;;;;6.04;86.40;101618.25;4999021;28;20738;-72